NKS9631 KDFW-KGYR
Flight info
| Callsign | NKS9631 |
|---|---|
| Flight time | N/A |
| Altitude | 38000 |
| Route | NELYN6 HOARY JCT EWM SSO SUNSS8 |
| Aircraft | A20N/M-SDE2E3FGHIJ1RWXY/LB1 |
Departure
| Time | 2026-05-03 20:38 |
|---|---|
| Airport | Dallas Fort Worth International Airport (KDFW) |
Arrival
| Time | N/A |
|---|---|
| Airport | Phoenix Goodyear Airport (KGYR) |
| Time | Latitude | Longitude | Altitude | Speed | Heading |
|---|---|---|---|---|---|
| 2026-05-03 20:15 | 32.88826 | -97.03457 | 573 ft | 0 kts | 110° |
| 2026-05-03 20:25 | 32.88829 | -97.03469 | 573 ft | 2 kts | 98° |
| 2026-05-03 20:26 | 32.88830 | -97.03487 | 573 ft | 2 kts | 85° |
| 2026-05-03 20:26 | 32.88828 | -97.03505 | 573 ft | 2 kts | 71° |
| 2026-05-03 20:26 | 32.88821 | -97.03521 | 572 ft | 2 kts | 58° |
| 2026-05-03 20:26 | 32.88812 | -97.03535 | 572 ft | 2 kts | 44° |
| 2026-05-03 20:27 | 32.88801 | -97.03545 | 572 ft | 1 kts | 34° |
| 2026-05-03 20:27 | 32.88799 | -97.03547 | 572 ft | 0 kts | 36° |
| 2026-05-03 20:29 | 32.88803 | -97.03544 | 572 ft | 2 kts | 36° |
| 2026-05-03 20:29 | 32.88824 | -97.03526 | 572 ft | 5 kts | 37° |
| 2026-05-03 20:29 | 32.88862 | -97.03494 | 573 ft | 8 kts | 32° |
| 2026-05-03 20:29 | 32.88907 | -97.03442 | 573 ft | 10 kts | 72° |
| 2026-05-03 20:30 | 32.88902 | -97.03358 | 573 ft | 10 kts | 97° |
| 2026-05-03 20:30 | 32.88900 | -97.03278 | 573 ft | 9 kts | 89° |
| 2026-05-03 20:30 | 32.88914 | -97.03207 | 573 ft | 9 kts | 35° |
| 2026-05-03 20:30 | 32.88981 | -97.03198 | 573 ft | 10 kts | 359° |
| 2026-05-03 20:31 | 32.89057 | -97.03199 | 573 ft | 11 kts | 359° |
| 2026-05-03 20:31 | 32.89140 | -97.03198 | 573 ft | 12 kts | 0° |
| 2026-05-03 20:31 | 32.89232 | -97.03197 | 573 ft | 13 kts | 0° |
| 2026-05-03 20:31 | 32.89331 | -97.03196 | 573 ft | 14 kts | 0° |
| 2026-05-03 20:32 | 32.89434 | -97.03196 | 575 ft | 14 kts | 0° |
| 2026-05-03 20:32 | 32.89533 | -97.03195 | 576 ft | 14 kts | 0° |
| 2026-05-03 20:32 | 32.89636 | -97.03195 | 576 ft | 15 kts | 0° |
| 2026-05-03 20:32 | 32.89743 | -97.03194 | 576 ft | 15 kts | 0° |
| 2026-05-03 20:33 | 32.89856 | -97.03194 | 577 ft | 16 kts | 360° |
| 2026-05-03 20:33 | 32.89972 | -97.03194 | 577 ft | 16 kts | 0° |
| 2026-05-03 20:33 | 32.90086 | -97.03192 | 578 ft | 15 kts | 0° |
| 2026-05-03 20:33 | 32.90190 | -97.03192 | 580 ft | 14 kts | 0° |
| 2026-05-03 20:34 | 32.90296 | -97.03192 | 580 ft | 15 kts | 359° |
| 2026-05-03 20:34 | 32.90408 | -97.03191 | 580 ft | 16 kts | 0° |
| 2026-05-03 20:34 | 32.90519 | -97.03190 | 580 ft | 15 kts | 360° |
| 2026-05-03 20:34 | 32.90625 | -97.03190 | 582 ft | 15 kts | 0° |
| 2026-05-03 20:35 | 32.90731 | -97.03189 | 583 ft | 15 kts | 360° |
| 2026-05-03 20:35 | 32.90840 | -97.03188 | 583 ft | 15 kts | 0° |
| 2026-05-03 20:35 | 32.90953 | -97.03188 | 581 ft | 16 kts | 360° |
| 2026-05-03 20:35 | 32.91072 | -97.03189 | 580 ft | 16 kts | 360° |
| 2026-05-03 20:36 | 32.91184 | -97.03188 | 579 ft | 15 kts | 0° |
| 2026-05-03 20:36 | 32.91271 | -97.03187 | 578 ft | 10 kts | 360° |
| 2026-05-03 20:36 | 32.91352 | -97.03188 | 576 ft | 12 kts | 360° |
| 2026-05-03 20:36 | 32.91412 | -97.03133 | 574 ft | 12 kts | 85° |
| 2026-05-03 20:37 | 32.91410 | -97.03034 | 572 ft | 9 kts | 97° |
| 2026-05-03 20:37 | 32.91369 | -97.02992 | 572 ft | 8 kts | 174° |
| 2026-05-03 20:37 | 32.91297 | -97.02991 | 573 ft | 25 kts | 180° |
| 2026-05-03 20:37 | 32.90804 | -97.02994 | 576 ft | 111 kts | 180° |
| 2026-05-03 20:38 | 32.89827 | -97.03005 | 793 ft | 156 kts | 183° |
| 2026-05-03 20:38 | 32.88715 | -97.03030 | 1420 ft | 169 kts | 183° |
| 2026-05-03 20:38 | 32.87557 | -97.02810 | 2332 ft | 173 kts | 160° |
| 2026-05-03 20:38 | 32.86488 | -97.02258 | 3125 ft | 174 kts | 171° |
| 2026-05-03 20:39 | 32.85229 | -97.02255 | 3639 ft | 193 kts | 188° |
| 2026-05-03 20:39 | 32.83832 | -97.02454 | 4268 ft | 212 kts | 188° |
| 2026-05-03 20:39 | 32.82315 | -97.02621 | 4928 ft | 230 kts | 186° |
| 2026-05-03 20:39 | 32.80652 | -97.02734 | 5608 ft | 249 kts | 184° |
| 2026-05-03 20:40 | 32.78913 | -97.02805 | 6493 ft | 258 kts | 182° |
| 2026-05-03 20:40 | 32.77114 | -97.02856 | 7481 ft | 263 kts | 182° |
| 2026-05-03 20:40 | 32.75255 | -97.02896 | 8461 ft | 269 kts | 182° |
| 2026-05-03 20:40 | 32.73278 | -97.02936 | 9480 ft | 275 kts | 182° |
| 2026-05-03 20:41 | 32.71237 | -97.02842 | 10480 ft | 282 kts | 173° |
| 2026-05-03 20:41 | 32.69201 | -97.02245 | 11378 ft | 293 kts | 160° |
| 2026-05-03 20:41 | 32.67172 | -97.01262 | 12010 ft | 312 kts | 156° |
| 2026-05-03 20:41 | 32.65053 | -97.00147 | 12590 ft | 332 kts | 156° |
| 2026-05-03 20:42 | 32.62861 | -96.99061 | 13107 ft | 351 kts | 163° |
| 2026-05-03 20:42 | 32.60387 | -96.98760 | 13679 ft | 365 kts | 187° |
| 2026-05-03 20:42 | 32.57954 | -96.99609 | 14526 ft | 368 kts | 207° |
| 2026-05-03 20:42 | 32.55731 | -97.01043 | 15440 ft | 370 kts | 211° |
| 2026-05-03 20:43 | 32.53474 | -97.02536 | 16286 ft | 375 kts | 211° |
| 2026-05-03 20:43 | 32.51092 | -97.04093 | 17143 ft | 380 kts | 211° |
| 2026-05-03 20:43 | 32.48639 | -97.05685 | 17999 ft | 384 kts | 211° |
| 2026-05-03 20:43 | 32.46181 | -97.07265 | 18807 ft | 389 kts | 212° |
| 2026-05-03 20:44 | 32.43706 | -97.08852 | 19562 ft | 394 kts | 212° |
| 2026-05-03 20:44 | 32.41155 | -97.10486 | 20320 ft | 399 kts | 213° |
| 2026-05-03 20:44 | 32.38612 | -97.12112 | 21078 ft | 403 kts | 213° |
| 2026-05-03 20:44 | 32.35997 | -97.13783 | 21816 ft | 408 kts | 213° |
| 2026-05-03 20:45 | 32.33386 | -97.15451 | 22555 ft | 412 kts | 214° |
| 2026-05-03 20:45 | 32.30666 | -97.17102 | 23297 ft | 419 kts | 210° |
| 2026-05-03 20:45 | 32.27779 | -97.18353 | 24009 ft | 429 kts | 202° |
| 2026-05-03 20:45 | 32.24692 | -97.19138 | 24714 ft | 439 kts | 194° |
| 2026-05-03 20:46 | 32.21494 | -97.19611 | 25359 ft | 445 kts | 193° |
| 2026-05-03 20:46 | 32.18237 | -97.20024 | 25934 ft | 450 kts | 192° |
| 2026-05-03 20:46 | 32.14989 | -97.20431 | 26507 ft | 455 kts | 193° |
| 2026-05-03 20:46 | 32.11695 | -97.20852 | 27067 ft | 459 kts | 193° |
| 2026-05-03 20:47 | 32.08363 | -97.21287 | 27608 ft | 463 kts | 193° |
| 2026-05-03 20:47 | 32.05006 | -97.21732 | 28127 ft | 466 kts | 193° |
| 2026-05-03 20:47 | 32.01608 | -97.22185 | 28609 ft | 470 kts | 194° |
| 2026-05-03 20:47 | 31.98179 | -97.22642 | 29067 ft | 474 kts | 194° |
| 2026-05-03 20:48 | 31.94734 | -97.23102 | 29517 ft | 477 kts | 194° |
| 2026-05-03 20:48 | 31.91277 | -97.23562 | 29928 ft | 480 kts | 194° |
| 2026-05-03 20:48 | 31.87767 | -97.24027 | 30312 ft | 482 kts | 195° |
| 2026-05-03 20:48 | 31.84306 | -97.24486 | 30678 ft | 484 kts | 195° |
| 2026-05-03 20:49 | 31.80767 | -97.24957 | 31145 ft | 483 kts | 195° |
| 2026-05-03 20:49 | 31.77296 | -97.25415 | 31597 ft | 482 kts | 196° |
| 2026-05-03 20:49 | 31.73816 | -97.25879 | 32043 ft | 480 kts | 197° |
| 2026-05-03 20:49 | 31.70371 | -97.26459 | 32428 ft | 476 kts | 200° |
| 2026-05-03 20:50 | 31.67006 | -97.27262 | 32849 ft | 469 kts | 205° |
| 2026-05-03 20:50 | 31.63830 | -97.28316 | 33287 ft | 456 kts | 212° |
| 2026-05-03 20:50 | 31.60848 | -97.29892 | 33769 ft | 439 kts | 221° |
| 2026-05-03 20:50 | 31.58209 | -97.31917 | 34288 ft | 422 kts | 230° |
| 2026-05-03 20:51 | 31.55955 | -97.34282 | 34801 ft | 406 kts | 238° |
| 2026-05-03 20:51 | 31.54029 | -97.36972 | 35160 ft | 395 kts | 246° |
| 2026-05-03 20:51 | 31.52502 | -97.39851 | 35559 ft | 385 kts | 253° |
| 2026-05-03 20:51 | 31.51307 | -97.42853 | 35963 ft | 378 kts | 257° |
| 2026-05-03 20:52 | 31.50225 | -97.45772 | 36361 ft | 377 kts | 257° |
| 2026-05-03 20:52 | 31.49155 | -97.48676 | 36707 ft | 377 kts | 257° |
| 2026-05-03 20:52 | 31.48086 | -97.51570 | 36948 ft | 378 kts | 257° |
| 2026-05-03 20:52 | 31.46981 | -97.54555 | 37202 ft | 380 kts | 257° |
| 2026-05-03 20:53 | 31.45875 | -97.57538 | 37423 ft | 382 kts | 258° |
| 2026-05-03 20:53 | 31.44772 | -97.60513 | 37628 ft | 383 kts | 258° |
| 2026-05-03 20:53 | 31.43675 | -97.63458 | 37842 ft | 384 kts | 257° |
| 2026-05-03 20:53 | 31.42558 | -97.66457 | 38086 ft | 385 kts | 257° |
| 2026-05-03 20:54 | 31.41432 | -97.69479 | 38113 ft | 386 kts | 257° |
| 2026-05-03 20:54 | 31.38105 | -97.78374 | 38121 ft | 386 kts | 257° |
| 2026-05-03 20:55 | 31.35800 | -97.84528 | 38119 ft | 386 kts | 257° |
| 2026-05-03 20:55 | 31.33486 | -97.90693 | 38119 ft | 388 kts | 258° |
| 2026-05-03 20:56 | 31.31214 | -97.96739 | 38117 ft | 387 kts | 257° |
| 2026-05-03 20:56 | 31.29038 | -98.02525 | 38111 ft | 385 kts | 257° |
| 2026-05-03 20:57 | 31.26879 | -98.08241 | 38108 ft | 386 kts | 257° |
| 2026-05-03 20:57 | 31.24728 | -98.13930 | 38110 ft | 386 kts | 257° |
| 2026-05-03 20:58 | 31.22553 | -98.19682 | 38114 ft | 386 kts | 257° |
| 2026-05-03 20:58 | 31.20398 | -98.25372 | 38112 ft | 385 kts | 257° |
| 2026-05-03 20:59 | 31.18220 | -98.31098 | 38107 ft | 385 kts | 257° |
| 2026-05-03 20:59 | 31.16064 | -98.36764 | 38111 ft | 383 kts | 257° |
| 2026-05-03 21:00 | 31.14617 | -98.40567 | 38109 ft | 383 kts | 257° |
| 2026-05-03 21:00 | 31.11644 | -98.48363 | 38113 ft | 384 kts | 257° |
| 2026-05-03 21:01 | 31.09365 | -98.54331 | 38107 ft | 381 kts | 257° |
| 2026-05-03 21:01 | 31.07058 | -98.60354 | 38107 ft | 384 kts | 258° |
| 2026-05-03 21:02 | 31.04753 | -98.66373 | 38115 ft | 384 kts | 257° |
| 2026-05-03 21:02 | 31.02469 | -98.72320 | 38114 ft | 383 kts | 256° |
| 2026-05-03 21:03 | 31.00197 | -98.78220 | 38114 ft | 383 kts | 257° |
| 2026-05-03 21:03 | 30.97926 | -98.84114 | 38114 ft | 382 kts | 256° |
| 2026-05-03 21:04 | 30.95665 | -98.89970 | 38113 ft | 382 kts | 257° |
| 2026-05-03 21:04 | 30.93383 | -98.95875 | 38112 ft | 382 kts | 257° |
| 2026-05-03 21:05 | 30.91106 | -99.01753 | 38111 ft | 383 kts | 257° |
| 2026-05-03 21:05 | 30.88815 | -99.07655 | 38114 ft | 382 kts | 257° |
| 2026-05-03 21:06 | 30.86510 | -99.13589 | 38108 ft | 382 kts | 257° |
| 2026-05-03 21:06 | 30.84267 | -99.19359 | 38112 ft | 384 kts | 257° |
| 2026-05-03 21:07 | 30.82005 | -99.25163 | 38110 ft | 384 kts | 256° |
| 2026-05-03 21:07 | 30.79725 | -99.31001 | 38113 ft | 386 kts | 257° |
| 2026-05-03 21:08 | 30.77418 | -99.36905 | 38110 ft | 385 kts | 256° |
| 2026-05-03 21:08 | 30.75101 | -99.42808 | 38113 ft | 386 kts | 256° |
| 2026-05-03 21:09 | 30.72765 | -99.48772 | 38114 ft | 386 kts | 256° |
| 2026-05-03 21:09 | 30.70435 | -99.54697 | 38116 ft | 385 kts | 256° |
| 2026-05-03 21:10 | 30.68158 | -99.60480 | 38118 ft | 386 kts | 256° |
| 2026-05-03 21:10 | 30.65838 | -99.66370 | 38125 ft | 387 kts | 255° |
| 2026-05-03 21:11 | 30.63535 | -99.72310 | 38120 ft | 383 kts | 258° |
| 2026-05-03 21:11 | 30.62015 | -99.78549 | 38125 ft | 373 kts | 268° |
| 2026-05-03 21:12 | 30.61566 | -99.84846 | 38137 ft | 365 kts | 277° |
| 2026-05-03 21:12 | 30.62081 | -99.90657 | 38129 ft | 360 kts | 284° |
| 2026-05-03 21:13 | 30.63320 | -99.96403 | 38121 ft | 358 kts | 288° |
| 2026-05-03 21:13 | 30.64657 | -100.02134 | 38128 ft | 358 kts | 288° |
| 2026-05-03 21:14 | 30.66016 | -100.07959 | 38120 ft | 358 kts | 288° |
| 2026-05-03 21:14 | 30.67371 | -100.13736 | 38126 ft | 359 kts | 288° |
| 2026-05-03 21:15 | 30.68728 | -100.19521 | 38125 ft | 359 kts | 288° |
| 2026-05-03 21:15 | 30.70086 | -100.25320 | 38108 ft | 359 kts | 288° |
| 2026-05-03 21:16 | 30.71450 | -100.31149 | 38110 ft | 360 kts | 288° |
| 2026-05-03 21:16 | 30.72791 | -100.36900 | 38104 ft | 359 kts | 288° |
| 2026-05-03 21:17 | 30.73925 | -100.41775 | 38102 ft | 359 kts | 288° |
| 2026-05-03 21:17 | 30.75498 | -100.48538 | 38108 ft | 360 kts | 288° |
| 2026-05-03 21:18 | 30.76831 | -100.54281 | 38108 ft | 360 kts | 287° |
| 2026-05-03 21:18 | 30.78176 | -100.60105 | 38107 ft | 361 kts | 287° |
| 2026-05-03 21:19 | 30.79517 | -100.65923 | 38108 ft | 361 kts | 287° |
| 2026-05-03 21:19 | 30.80894 | -100.71905 | 38104 ft | 362 kts | 287° |
| 2026-05-03 21:20 | 30.82251 | -100.77805 | 38094 ft | 361 kts | 287° |
| 2026-05-03 21:20 | 30.83587 | -100.83633 | 38101 ft | 361 kts | 287° |
| 2026-05-03 21:21 | 30.84914 | -100.89440 | 38092 ft | 361 kts | 287° |
| 2026-05-03 21:21 | 30.86237 | -100.95235 | 38094 ft | 362 kts | 287° |
| 2026-05-03 21:22 | 30.87571 | -101.01089 | 38100 ft | 362 kts | 287° |
| 2026-05-03 21:22 | 30.88889 | -101.06888 | 38092 ft | 361 kts | 287° |
| 2026-05-03 21:23 | 30.90215 | -101.12741 | 38106 ft | 362 kts | 287° |
| 2026-05-03 21:23 | 30.91514 | -101.18491 | 38100 ft | 362 kts | 287° |
| 2026-05-03 21:24 | 30.92819 | -101.24265 | 38110 ft | 362 kts | 287° |
| 2026-05-03 21:24 | 30.94125 | -101.30065 | 38111 ft | 362 kts | 287° |
| 2026-05-03 21:25 | 30.95440 | -101.35919 | 38108 ft | 362 kts | 287° |
| 2026-05-03 21:25 | 30.96745 | -101.41747 | 38104 ft | 362 kts | 287° |
| 2026-05-03 21:26 | 30.98049 | -101.47581 | 38108 ft | 362 kts | 287° |
| 2026-05-03 21:26 | 30.99358 | -101.53436 | 38112 ft | 362 kts | 287° |
| 2026-05-03 21:27 | 31.00657 | -101.59277 | 38110 ft | 362 kts | 287° |
| 2026-05-03 21:27 | 31.01954 | -101.65111 | 38100 ft | 362 kts | 287° |
| 2026-05-03 21:28 | 31.03272 | -101.71069 | 38097 ft | 362 kts | 287° |
| 2026-05-03 21:28 | 31.04566 | -101.76918 | 38092 ft | 363 kts | 287° |
| 2026-05-03 21:29 | 31.05856 | -101.82767 | 38090 ft | 361 kts | 287° |
| 2026-05-03 21:29 | 31.07162 | -101.88711 | 38081 ft | 362 kts | 287° |
| 2026-05-03 21:30 | 31.08470 | -101.94659 | 38080 ft | 362 kts | 286° |
| 2026-05-03 21:30 | 31.09778 | -102.00631 | 38079 ft | 361 kts | 287° |
| 2026-05-03 21:31 | 31.11073 | -102.06577 | 38082 ft | 361 kts | 287° |
| 2026-05-03 21:31 | 31.12374 | -102.12533 | 38078 ft | 361 kts | 286° |
| 2026-05-03 21:32 | 31.13660 | -102.18460 | 38078 ft | 362 kts | 287° |
| 2026-05-03 21:32 | 31.14945 | -102.24365 | 38083 ft | 362 kts | 286° |
| 2026-05-03 21:33 | 31.16243 | -102.30380 | 38081 ft | 362 kts | 286° |
| 2026-05-03 21:33 | 31.17543 | -102.36409 | 38077 ft | 361 kts | 286° |
| 2026-05-03 21:34 | 31.18829 | -102.42373 | 38070 ft | 362 kts | 286° |
| 2026-05-03 21:34 | 31.20110 | -102.48334 | 38067 ft | 363 kts | 285° |
| 2026-05-03 21:35 | 31.21402 | -102.54367 | 38052 ft | 364 kts | 285° |
| 2026-05-03 21:35 | 31.22684 | -102.60357 | 38061 ft | 364 kts | 286° |
| 2026-05-03 21:36 | 31.23969 | -102.66389 | 38063 ft | 364 kts | 285° |
| 2026-05-03 21:36 | 31.25233 | -102.72333 | 38058 ft | 365 kts | 285° |
| 2026-05-03 21:37 | 31.26485 | -102.78226 | 38054 ft | 365 kts | 285° |
| 2026-05-03 21:37 | 31.27708 | -102.83992 | 38056 ft | 364 kts | 285° |
| 2026-05-03 21:38 | 31.28919 | -102.89742 | 38057 ft | 364 kts | 285° |
| 2026-05-03 21:38 | 31.30132 | -102.95499 | 38059 ft | 364 kts | 285° |
| 2026-05-03 21:39 | 31.31334 | -103.01217 | 38056 ft | 364 kts | 285° |
| 2026-05-03 21:39 | 31.32543 | -103.06969 | 38056 ft | 365 kts | 284° |
| 2026-05-03 21:40 | 31.33748 | -103.12738 | 38057 ft | 365 kts | 285° |
| 2026-05-03 21:40 | 31.35018 | -103.18800 | 38062 ft | 365 kts | 284° |
| 2026-05-03 21:41 | 31.36234 | -103.24657 | 38069 ft | 364 kts | 285° |
| 2026-05-03 21:41 | 31.37478 | -103.30643 | 38069 ft | 365 kts | 285° |
| 2026-05-03 21:42 | 31.38759 | -103.36831 | 38071 ft | 363 kts | 285° |
| 2026-05-03 21:42 | 31.40018 | -103.42929 | 38070 ft | 364 kts | 284° |
| 2026-05-03 21:43 | 31.41244 | -103.48869 | 38070 ft | 363 kts | 285° |
| 2026-05-03 21:43 | 31.42422 | -103.54622 | 38067 ft | 365 kts | 285° |
| 2026-05-03 21:44 | 31.43612 | -103.60414 | 38067 ft | 364 kts | 284° |
| 2026-05-03 21:44 | 31.44785 | -103.66150 | 38079 ft | 364 kts | 283° |
| 2026-05-03 21:45 | 31.46018 | -103.72217 | 38081 ft | 364 kts | 284° |
| 2026-05-03 21:45 | 31.47219 | -103.78099 | 38088 ft | 365 kts | 283° |
| 2026-05-03 21:46 | 31.48394 | -103.83893 | 38090 ft | 365 kts | 284° |
| 2026-05-03 21:46 | 31.49590 | -103.89779 | 38085 ft | 366 kts | 284° |
| 2026-05-03 21:47 | 31.50837 | -103.95951 | 38080 ft | 366 kts | 284° |
| 2026-05-03 21:47 | 31.52029 | -104.01847 | 38080 ft | 367 kts | 283° |
| 2026-05-03 21:48 | 31.53200 | -104.07672 | 38093 ft | 366 kts | 283° |
| 2026-05-03 21:48 | 31.54358 | -104.13453 | 38093 ft | 368 kts | 283° |
| 2026-05-03 21:49 | 31.55518 | -104.19270 | 38109 ft | 367 kts | 283° |
| 2026-05-03 21:49 | 31.56684 | -104.25108 | 38107 ft | 367 kts | 283° |
| 2026-05-03 21:50 | 31.57834 | -104.30898 | 38114 ft | 367 kts | 284° |
| 2026-05-03 21:50 | 31.58990 | -104.36714 | 38125 ft | 366 kts | 283° |
| 2026-05-03 21:51 | 31.60167 | -104.42651 | 38127 ft | 367 kts | 283° |
| 2026-05-03 21:51 | 31.61361 | -104.48708 | 38136 ft | 367 kts | 283° |
| 2026-05-03 21:52 | 31.62546 | -104.54733 | 38138 ft | 366 kts | 283° |
| 2026-05-03 21:52 | 31.63721 | -104.60714 | 38144 ft | 366 kts | 283° |
| 2026-05-03 21:53 | 31.64908 | -104.66778 | 38158 ft | 367 kts | 283° |
| 2026-05-03 21:53 | 31.66103 | -104.72877 | 38155 ft | 366 kts | 283° |
| 2026-05-03 21:54 | 31.67271 | -104.78877 | 38157 ft | 366 kts | 283° |
| 2026-05-03 21:54 | 31.68438 | -104.84876 | 38161 ft | 367 kts | 283° |
| 2026-05-03 21:55 | 31.69611 | -104.90938 | 38153 ft | 367 kts | 283° |
| 2026-05-03 21:55 | 31.70781 | -104.96990 | 38150 ft | 366 kts | 283° |
| 2026-05-03 21:56 | 31.71944 | -105.03006 | 38143 ft | 367 kts | 283° |
| 2026-05-03 21:56 | 31.73121 | -105.09129 | 38135 ft | 366 kts | 282° |
| 2026-05-03 21:57 | 31.74282 | -105.15202 | 38144 ft | 366 kts | 283° |
| 2026-05-03 21:57 | 31.75434 | -105.21242 | 38149 ft | 366 kts | 283° |
| 2026-05-03 21:58 | 31.76590 | -105.27294 | 38146 ft | 365 kts | 283° |
| 2026-05-03 21:58 | 31.77725 | -105.33250 | 38158 ft | 364 kts | 283° |
| 2026-05-03 21:59 | 31.78880 | -105.39333 | 38156 ft | 365 kts | 282° |
| 2026-05-03 21:59 | 31.80009 | -105.45319 | 38156 ft | 365 kts | 282° |
| 2026-05-03 22:00 | 31.81118 | -105.51210 | 38167 ft | 366 kts | 282° |
| 2026-05-03 22:00 | 31.82215 | -105.57034 | 38156 ft | 366 kts | 283° |
| 2026-05-03 22:01 | 31.83343 | -105.63034 | 38164 ft | 365 kts | 283° |